Cap Felix — ONFH — position and weather

sailwx.info

Track history (hours):
 
Tides and Currents Weather Stations Pressure Air Temp Water Temp Dewpoint Dewpoint Depression Visibility Wind Speed Wind Dir Waves Ship Positions

Cap Felix

Last reported at 2016-Nov-19 22:33 UTC. Time now 2016-Dec-04 14:21 UTC.
Position N 10°28' W 017°20'.
Warning: this ship's position is 14 days out of date.

Length 275 m; draft 9 m.

Type: Tanker. MMSI: 205517000.

Date/timePositionNaut miles runAvg speedWind from/ knotsBaromVisibWave heightAir tempDewpointWater temp
2016-Nov-19 22:33N 10°28' W 017°20'  
2016-Nov-16 02:30N 26°15' W 015°15'5511.1
2016-Nov-15 21:32N 26°57' W 014°36'2110.5
2016-Nov-15 19:33N 27°13' W 014°21'1110.7
2016-Nov-15 18:33N 27°22' W 014°14'5611.3
2016-Nov-15 13:33N 28°06' W 013°34'1111.0
2016-Nov-15 12:33N 28°15' W 013°28'1211.1
2016-Nov-15 11:31N 28°25' W 013°20'1111.2
2016-Nov-15 10:33N 28°34' W 013°14'3411.2
2016-Nov-15 07:34N 29°02' W 012°53'1211.5
2016-Nov-15 06:34N 29°12' W 012°46'811.5
2016-Nov-15 05:53N 29°19' W 012°41'2911.5
2016-Nov-15 03:19N 29°43' W 012°23'911.8
2016-Nov-15 02:33N 29°51' W 012°17'2311.8
2016-Nov-15 00:33N 30°11' W 012°02'1011.5
2016-Nov-14 23:42N 30°19' W 011°56'46513.6
2016-Nov-13 13:29N 35°57' W 005°36'  
2016-Nov-10 11:29N 36°32' E 013°57'5 5.9
2016-Nov-10 10:33N 36°30' E 014°03'5 5.3
2016-Nov-10 09:33N 36°29' E 014°09'5 5.0
2016-Nov-10 08:33N 36°28' E 014°16'5 5.1
2016-Nov-10 07:33N 36°28' E 014°22'5 4.7
2016-Nov-10 06:33N 36°28' E 014°28'5 4.8
2016-Nov-10 05:33N 36°28' E 014°34'5 4.6
2016-Nov-10 04:33N 36°28' E 014°39'  
Track history (hours):
 
Tides and Currents Weather Stations Pressure Air Temp Water Temp Dewpoint Dewpoint Depression Visibility Wind Speed Wind Dir Waves Ship Positions

Cap Felix

Last reported at 2016-Nov-19 22:33 UTC. Time now 2016-Dec-04 14:21 UTC.
Position N 10°28' W 017°20'.
Warning: this ship's position is 14 days out of date.

Length 275 m; draft 9 m.

Type: Tanker. MMSI: 205517000.

Date/timePositionNaut miles runAvg speedWind from/ knotsBaromVisibWave heightAir tempDewpointWater temp
2016-Nov-19 22:33N 10°28' W 017°20'  
2016-Nov-16 02:30N 26°15' W 015°15'5511.1
2016-Nov-15 21:32N 26°57' W 014°36'2110.5
2016-Nov-15 19:33N 27°13' W 014°21'1110.7
2016-Nov-15 18:33N 27°22' W 014°14'5611.3
2016-Nov-15 13:33N 28°06' W 013°34'1111.0
2016-Nov-15 12:33N 28°15' W 013°28'1211.1
2016-Nov-15 11:31N 28°25' W 013°20'1111.2
2016-Nov-15 10:33N 28°34' W 013°14'3411.2
2016-Nov-15 07:34N 29°02' W 012°53'1211.5
2016-Nov-15 06:34N 29°12' W 012°46'811.5
2016-Nov-15 05:53N 29°19' W 012°41'2911.5
2016-Nov-15 03:19N 29°43' W 012°23'911.8
2016-Nov-15 02:33N 29°51' W 012°17'2311.8
2016-Nov-15 00:33N 30°11' W 012°02'1011.5
2016-Nov-14 23:42N 30°19' W 011°56'46513.6
2016-Nov-13 13:29N 35°57' W 005°36'  
2016-Nov-10 11:29N 36°32' E 013°57'5 5.9
2016-Nov-10 10:33N 36°30' E 014°03'5 5.3
2016-Nov-10 09:33N 36°29' E 014°09'5 5.0
2016-Nov-10 08:33N 36°28' E 014°16'5 5.1
2016-Nov-10 07:33N 36°28' E 014°22'5 4.7
2016-Nov-10 06:33N 36°28' E 014°28'5 4.8
2016-Nov-10 05:33N 36°28' E 014°34'5 4.6
2016-Nov-10 04:33N 36°28' E 014°39'  

Dump ship's entire track history